createdAt,value
2018-04-28T00:02:32.225Z,64.91
2018-04-28T00:08:42.108Z,64.94
2018-04-28T00:14:47.042Z,66.13
2018-04-28T00:27:24.076Z,66.46
2018-04-28T00:33:31.829Z,66.17
2018-04-28T00:39:52.276Z,65.35
2018-04-28T00:46:19.747Z,67.00
2018-04-28T00:52:28.683Z,66.99
2018-04-28T00:59:03.230Z,67.55
2018-04-28T01:05:10.497Z,68.02
2018-04-28T01:18:10.209Z,68.10
2018-04-28T01:31:14.316Z,69.41
2018-04-28T01:37:52.394Z,70.13
2018-04-28T01:44:11.805Z,70.92
2018-04-28T01:50:17.090Z,71.29
2018-04-28T01:56:37.688Z,72.12
2018-04-28T02:02:49.907Z,72.13
2018-04-28T02:09:09.809Z,72.62
2018-04-28T02:15:34.693Z,72.70
2018-04-28T02:22:06.639Z,72.72
2018-04-28T02:28:33.194Z,72.91
2018-04-28T02:34:55.477Z,73.62
2018-04-28T02:48:00.389Z,73.11
2018-04-28T02:54:07.988Z,74.19
2018-04-28T03:06:51.912Z,74.25
2018-04-28T03:12:57.111Z,74.82
2018-04-28T03:19:18.487Z,74.99
2018-04-28T03:25:39.856Z,75.42
2018-04-28T03:31:48.089Z,75.82
2018-04-28T03:37:58.499Z,76.19
2018-04-28T03:44:05.210Z,76.77
2018-04-28T03:50:16.042Z,76.67
2018-04-28T04:03:09.594Z,76.59
2018-04-28T04:15:54.037Z,76.15
2018-04-28T04:22:03.869Z,76.26
2018-04-28T04:28:08.675Z,76.33
2018-04-28T04:34:14.063Z,76.96
2018-04-28T04:47:29.188Z,76.33
2018-04-28T04:53:40.950Z,76.07
2018-04-28T05:13:31.625Z,76.02
2018-04-28T05:19:39.184Z,75.91
2018-04-28T05:26:00.180Z,74.59
2018-04-28T05:32:14.049Z,73.20
2018-04-28T05:38:40.498Z,73.54
2018-04-28T05:51:52.214Z,72.54
2018-04-28T05:58:12.756Z,71.88
2018-04-28T06:04:43.518Z,72.45
2018-04-28T06:17:48.890Z,67.43
2018-04-28T06:23:53.520Z,63.58
2018-04-28T06:29:57.554Z,60.59
2018-04-28T06:36:01.589Z,63.08
2018-04-28T06:42:05.628Z,63.30
2018-04-28T06:48:09.667Z,61.32
2018-04-28T06:54:13.784Z,60.36
2018-04-28T07:00:17.835Z,59.02
2018-04-28T07:06:23.060Z,57.70
2018-04-28T07:12:27.364Z,57.18
2018-04-28T07:18:31.399Z,59.02
2018-04-28T07:24:36.233Z,55.97
2018-04-28T07:30:40.487Z,56.77
2018-04-28T07:36:44.594Z,54.65
2018-04-28T07:42:48.854Z,55.95
2018-04-28T07:48:54.442Z,53.71
2018-04-28T07:54:58.773Z,52.81
2018-04-28T08:01:02.874Z,51.38
2018-04-28T08:07:07.015Z,51.79
2018-04-28T08:13:11.159Z,48.28
2018-04-28T08:19:16.053Z,51.14
2018-04-28T08:25:20.240Z,49.81
2018-04-28T08:31:24.485Z,46.69
2018-04-28T08:37:29.349Z,47.98
2018-04-28T08:43:33.502Z,47.61
2018-04-28T08:49:37.602Z,47.10
2018-04-28T08:55:42.499Z,47.09
2018-04-28T09:01:47.318Z,48.52
2018-04-28T09:07:51.377Z,46.59
2018-04-28T09:13:55.842Z,44.53
2018-04-28T09:20:00.210Z,44.76
2018-04-28T09:26:04.647Z,45.20
2018-04-28T09:32:08.992Z,43.73
2018-04-28T09:38:13.354Z,42.71
2018-04-28T09:44:17.726Z,43.61
2018-04-28T09:50:22.715Z,41.19
2018-04-28T09:56:27.227Z,39.29
2018-04-28T10:02:31.609Z,39.18
2018-04-28T10:08:35.975Z,38.07
2018-04-28T10:14:40.333Z,38.42
2018-04-28T10:20:44.685Z,36.28
2018-04-28T10:26:49.253Z,36.10
2018-04-28T10:32:53.726Z,37.04
2018-04-28T10:38:58.094Z,35.66
2018-04-28T10:45:03.287Z,36.25
2018-04-28T10:51:07.663Z,33.52
2018-04-28T10:57:12.789Z,32.28
2018-04-28T11:03:17.143Z,31.23
2018-04-28T11:09:22.494Z,33.46
2018-04-28T11:15:26.870Z,33.49
2018-04-28T11:21:31.222Z,30.14
2018-04-28T11:27:35.579Z,31.86
2018-04-28T11:33:40.259Z,30.69
2018-04-28T11:39:44.620Z,30.87
2018-04-28T11:45:49.044Z,30.91
2018-04-28T11:51:53.460Z,31.39
2018-04-28T11:57:58.623Z,27.00
2018-04-28T12:04:03.071Z,29.74
2018-04-28T12:10:07.424Z,28.90
2018-04-28T12:16:11.774Z,25.26
2018-04-28T12:22:16.979Z,27.42
2018-04-28T12:28:22.367Z,28.07
2018-04-28T12:34:26.758Z,28.06
2018-04-28T12:40:31.138Z,27.35
2018-04-28T12:46:35.488Z,27.61
2018-04-28T12:52:40.617Z,25.66
2018-04-28T12:58:44.980Z,25.95
2018-04-28T13:04:49.577Z,28.23
2018-04-28T13:10:54.766Z,24.09
2018-04-28T13:16:59.126Z,24.80
2018-04-28T13:23:04.474Z,25.17
2018-04-28T13:29:08.874Z,25.19
2018-04-28T13:35:14.036Z,24.50
2018-04-28T13:41:18.496Z,25.53
2018-04-28T13:47:23.175Z,27.36
2018-04-28T13:53:27.527Z,26.95
2018-04-28T13:59:31.994Z,26.50
2018-04-28T14:05:36.341Z,26.21
2018-04-28T14:11:41.465Z,23.30
2018-04-28T14:17:45.876Z,24.21
2018-04-28T14:23:50.398Z,24.46
2018-04-28T14:29:54.922Z,27.63
2018-04-28T14:35:59.372Z,25.48
2018-04-28T14:42:03.737Z,24.46
2018-04-28T14:48:08.867Z,24.07
2018-04-28T14:54:13.252Z,23.42
2018-04-28T15:00:17.607Z,23.14
2018-04-28T15:06:22.102Z,21.82
2018-04-28T15:12:26.463Z,24.32
2018-04-28T15:18:30.845Z,29.09
2018-04-28T15:24:35.288Z,30.67
2018-04-28T15:30:39.651Z,28.38
2018-04-28T15:36:44.775Z,28.67
2018-04-28T15:42:49.125Z,29.33
2018-04-28T15:48:53.677Z,31.10
2018-04-28T15:54:58.075Z,32.06
2018-04-28T16:01:03.192Z,32.03
2018-04-28T16:07:07.559Z,33.56
2018-04-28T16:13:12.028Z,35.59
2018-04-28T16:19:16.393Z,38.45
2018-04-28T16:25:21.556Z,38.01
2018-04-28T16:31:25.943Z,37.62
2018-04-28T16:37:30.292Z,37.50
2018-04-28T16:43:34.655Z,39.65
2018-04-28T16:49:39.044Z,41.39
2018-04-28T16:55:43.401Z,44.34
2018-04-28T17:01:47.855Z,44.55
2018-04-28T17:07:52.249Z,44.91
2018-04-28T17:13:56.640Z,47.07
2018-04-28T17:20:00.986Z,46.63
2018-04-28T17:26:05.346Z,50.46
2018-04-28T17:32:09.826Z,51.85
2018-04-28T17:38:14.196Z,54.31
2018-04-28T17:44:18.685Z,51.87
2018-04-28T17:50:23.221Z,51.92
2018-04-28T17:56:27.572Z,52.29
2018-04-28T18:02:31.943Z,55.09
2018-04-28T18:08:36.303Z,55.27
2018-04-28T18:14:40.693Z,56.04
2018-04-28T18:20:45.031Z,56.14
2018-04-28T18:26:49.521Z,57.88
2018-04-28T18:32:54.123Z,53.94
2018-04-28T18:38:58.551Z,55.61
2018-04-28T18:45:03.705Z,54.11
2018-04-28T18:51:09.649Z,55.30
2018-04-28T18:57:14.092Z,56.53
2018-04-28T19:03:18.456Z,57.06
2018-04-28T19:09:23.400Z,57.73
2018-04-28T19:15:27.779Z,58.07
2018-04-28T19:21:32.139Z,58.20
2018-04-28T19:27:37.276Z,57.08
2018-04-28T19:33:41.638Z,57.15
2018-04-28T19:39:45.996Z,56.82
2018-04-28T19:45:51.287Z,55.53
2018-04-28T19:51:55.718Z,57.10
2018-04-28T19:58:00.132Z,56.52
2018-04-28T20:04:04.535Z,57.30
2018-04-28T20:10:09.071Z,57.58
2018-04-28T20:16:14.284Z,56.44
2018-04-28T20:22:36.566Z,60.13
2018-04-28T20:28:41.677Z,59.72
2018-04-28T20:34:46.058Z,60.20
2018-04-28T20:40:50.439Z,59.92
2018-04-28T20:46:54.864Z,60.25
2018-04-28T20:53:00.000Z,60.74
2018-04-28T20:59:04.355Z,61.38
2018-04-28T21:05:09.475Z,62.33
2018-04-28T21:11:13.933Z,62.68
2018-04-28T21:17:18.305Z,65.14
2018-04-28T21:23:23.436Z,65.65
2018-04-28T21:29:27.795Z,65.94
2018-04-28T21:35:32.158Z,67.43
2018-04-28T21:41:36.532Z,66.07
2018-04-28T21:47:40.930Z,66.01
2018-04-28T21:53:45.287Z,68.47
2018-04-28T21:59:50.019Z,68.22
2018-04-28T22:05:54.720Z,68.41
2018-04-28T22:11:59.099Z,68.26
2018-04-28T22:18:04.257Z,66.37
2018-04-28T22:24:08.606Z,66.14
2018-04-28T22:30:12.973Z,67.29
2018-04-28T22:36:17.344Z,68.30
2018-04-28T22:42:21.699Z,68.36
2018-04-28T22:48:26.216Z,68.67
2018-04-28T22:54:30.733Z,68.32
2018-04-28T23:00:42.495Z,69.26
2018-04-28T23:06:47.382Z,68.99
2018-04-28T23:12:52.071Z,68.54
2018-04-28T23:18:57.266Z,69.47
2018-04-28T23:25:01.799Z,69.09
2018-04-28T23:31:06.156Z,69.54
2018-04-28T23:37:10.526Z,68.39
2018-04-28T23:43:14.888Z,68.36
2018-04-28T23:49:20.053Z,68.55
2018-04-28T23:55:24.610Z,69.16
